CSH9347 ZSSS-ZHCC
Flight info
| Callsign | CSH9347 |
|---|---|
| Flight time | 1h 39m |
| Altitude | 25600 |
| Route | PIKAS G330 UNTAN G345 OLRIS R343 HFE B208 FYG W596 UNTEL |
| Aircraft | B738/M-SDE2E3FGHIRWXY/LB1 |
Departure
| Time | 2026-04-24 04:24 |
|---|---|
| Airport | Shanghai Hongqiao International Airport (ZSSS) |
Arrival
| Time | 2026-04-24 06:03 |
|---|---|
| Airport | Zhengzhou Xinzheng International Airport (ZHCC) |
| Time | Latitude | Longitude | Altitude | Speed | Heading |
|---|---|---|---|---|---|
| 2026-04-24 04:05 | 31.20297 | 121.32739 | 16 ft | 0 kts | 358° |
| 2026-04-24 04:11 | 31.20293 | 121.32739 | 17 ft | 2 kts | 358° |
| 2026-04-24 04:11 | 31.20278 | 121.32739 | 17 ft | 2 kts | 357° |
| 2026-04-24 04:11 | 31.20263 | 121.32740 | 17 ft | 2 kts | 356° |
| 2026-04-24 04:11 | 31.20248 | 121.32741 | 17 ft | 2 kts | 357° |
| 2026-04-24 04:12 | 31.20233 | 121.32742 | 18 ft | 2 kts | 357° |
| 2026-04-24 04:12 | 31.20218 | 121.32742 | 18 ft | 2 kts | 20° |
| 2026-04-24 04:12 | 31.20205 | 121.32732 | 18 ft | 2 kts | 51° |
| 2026-04-24 04:12 | 31.20199 | 121.32716 | 18 ft | 2 kts | 82° |
| 2026-04-24 04:13 | 31.20198 | 121.32707 | 18 ft | 0 kts | 91° |
| 2026-04-24 04:17 | 31.20198 | 121.32713 | 18 ft | 1 kts | 89° |
| 2026-04-24 04:17 | 31.20199 | 121.32744 | 18 ft | 6 kts | 86° |
| 2026-04-24 04:17 | 31.20202 | 121.32793 | 18 ft | 5 kts | 86° |
| 2026-04-24 04:17 | 31.20204 | 121.32829 | 18 ft | 5 kts | 87° |
| 2026-04-24 04:18 | 31.20207 | 121.32893 | 18 ft | 10 kts | 86° |
| 2026-04-24 04:18 | 31.20210 | 121.32976 | 19 ft | 8 kts | 92° |
| 2026-04-24 04:18 | 31.20190 | 121.33025 | 19 ft | 6 kts | 150° |
| 2026-04-24 04:18 | 31.20150 | 121.33034 | 19 ft | 5 kts | 174° |
| 2026-04-24 04:19 | 31.20106 | 121.33040 | 19 ft | 7 kts | 175° |
| 2026-04-24 04:19 | 31.20050 | 121.33043 | 19 ft | 9 kts | 178° |
| 2026-04-24 04:19 | 31.19969 | 121.33047 | 19 ft | 14 kts | 178° |
| 2026-04-24 04:19 | 31.19855 | 121.33053 | 19 ft | 18 kts | 177° |
| 2026-04-24 04:20 | 31.19714 | 121.33060 | 19 ft | 22 kts | 177° |
| 2026-04-24 04:20 | 31.19544 | 121.33069 | 19 ft | 26 kts | 177° |
| 2026-04-24 04:20 | 31.19372 | 121.33080 | 19 ft | 22 kts | 176° |
| 2026-04-24 04:20 | 31.19222 | 121.33089 | 19 ft | 19 kts | 176° |
| 2026-04-24 04:21 | 31.19120 | 121.33096 | 19 ft | 15 kts | 176° |
| 2026-04-24 04:21 | 31.18981 | 121.33104 | 19 ft | 20 kts | 176° |
| 2026-04-24 04:21 | 31.18841 | 121.33113 | 19 ft | 19 kts | 176° |
| 2026-04-24 04:21 | 31.18704 | 121.33121 | 19 ft | 19 kts | 177° |
| 2026-04-24 04:22 | 31.18566 | 121.33130 | 19 ft | 20 kts | 176° |
| 2026-04-24 04:22 | 31.18477 | 121.33154 | 19 ft | 10 kts | 128° |
| 2026-04-24 04:22 | 31.18471 | 121.33227 | 19 ft | 8 kts | 88° |
| 2026-04-24 04:22 | 31.18480 | 121.33299 | 19 ft | 9 kts | 62° |
| 2026-04-24 04:23 | 31.18535 | 121.33321 | 19 ft | 1 kts | 356° |
| 2026-04-24 04:23 | 31.18545 | 121.33321 | 19 ft | 8 kts | 356° |
| 2026-04-24 04:23 | 31.18882 | 121.33301 | 19 ft | 87 kts | 357° |
| 2026-04-24 04:23 | 31.19720 | 121.33250 | 19 ft | 151 kts | 357° |
| 2026-04-24 04:24 | 31.20900 | 121.33178 | 272 ft | 182 kts | 357° |
| 2026-04-24 04:24 | 31.22254 | 121.33082 | 506 ft | 202 kts | 356° |
| 2026-04-24 04:24 | 31.23723 | 121.32985 | 935 ft | 223 kts | 353° |
| 2026-04-24 04:24 | 31.25202 | 121.32336 | 1613 ft | 239 kts | 322° |
| 2026-04-24 04:25 | 31.26431 | 121.31040 | 2355 ft | 247 kts | 316° |
| 2026-04-24 04:25 | 31.27729 | 121.29641 | 2856 ft | 261 kts | 319° |
| 2026-04-24 04:25 | 31.29151 | 121.28238 | 2906 ft | 269 kts | 321° |
| 2026-04-24 04:25 | 31.30589 | 121.26872 | 2902 ft | 261 kts | 321° |
| 2026-04-24 04:26 | 31.32000 | 121.25542 | 2913 ft | 262 kts | 321° |
| 2026-04-24 04:26 | 31.33417 | 121.24210 | 2910 ft | 263 kts | 321° |
| 2026-04-24 04:26 | 31.34837 | 121.22877 | 2909 ft | 263 kts | 321° |
| 2026-04-24 04:26 | 31.36254 | 121.21545 | 2910 ft | 262 kts | 321° |
| 2026-04-24 04:27 | 31.37683 | 121.20203 | 2910 ft | 262 kts | 321° |
| 2026-04-24 04:27 | 31.39100 | 121.18870 | 2910 ft | 262 kts | 321° |
| 2026-04-24 04:27 | 31.40478 | 121.17474 | 2907 ft | 263 kts | 315° |
| 2026-04-24 04:27 | 31.41720 | 121.15913 | 2912 ft | 263 kts | 312° |
| 2026-04-24 04:28 | 31.42942 | 121.14326 | 2909 ft | 263 kts | 312° |
| 2026-04-24 04:28 | 31.44186 | 121.12721 | 2909 ft | 263 kts | 313° |
| 2026-04-24 04:28 | 31.45571 | 121.11363 | 2903 ft | 262 kts | 330° |
| 2026-04-24 04:28 | 31.47195 | 121.10428 | 2922 ft | 262 kts | 336° |
| 2026-04-24 04:29 | 31.48861 | 121.09578 | 2905 ft | 262 kts | 336° |
| 2026-04-24 04:29 | 31.50536 | 121.08712 | 2910 ft | 262 kts | 336° |
| 2026-04-24 04:29 | 31.52195 | 121.07842 | 2909 ft | 262 kts | 336° |
| 2026-04-24 04:29 | 31.53852 | 121.06966 | 2910 ft | 262 kts | 336° |
| 2026-04-24 04:30 | 31.55519 | 121.06082 | 2909 ft | 262 kts | 336° |
| 2026-04-24 04:30 | 31.57176 | 121.05203 | 2909 ft | 262 kts | 336° |
| 2026-04-24 04:30 | 31.58835 | 121.04320 | 2909 ft | 262 kts | 336° |
| 2026-04-24 04:30 | 31.60493 | 121.03438 | 2909 ft | 262 kts | 336° |
| 2026-04-24 04:31 | 31.62147 | 121.02557 | 2909 ft | 262 kts | 336° |
| 2026-04-24 04:31 | 31.63803 | 121.01675 | 2909 ft | 262 kts | 336° |
| 2026-04-24 04:31 | 31.65456 | 121.00795 | 2909 ft | 262 kts | 336° |
| 2026-04-24 04:31 | 31.67131 | 120.99903 | 2909 ft | 262 kts | 336° |
| 2026-04-24 04:32 | 31.68782 | 120.99023 | 2909 ft | 262 kts | 336° |
| 2026-04-24 04:32 | 31.70429 | 120.98144 | 2909 ft | 262 kts | 336° |
| 2026-04-24 04:32 | 31.72096 | 120.97255 | 2909 ft | 262 kts | 336° |
| 2026-04-24 04:32 | 31.73762 | 120.96366 | 2909 ft | 262 kts | 336° |
| 2026-04-24 04:33 | 31.75399 | 120.95492 | 2909 ft | 262 kts | 336° |
| 2026-04-24 04:33 | 31.77062 | 120.94603 | 2909 ft | 262 kts | 336° |
| 2026-04-24 04:33 | 31.78714 | 120.93720 | 2909 ft | 262 kts | 336° |
| 2026-04-24 04:33 | 31.80375 | 120.92833 | 2909 ft | 262 kts | 336° |
| 2026-04-24 04:34 | 31.82039 | 120.91943 | 2909 ft | 262 kts | 336° |
| 2026-04-24 04:34 | 31.83686 | 120.91061 | 2909 ft | 262 kts | 336° |
| 2026-04-24 04:34 | 31.85350 | 120.90171 | 2909 ft | 262 kts | 336° |
| 2026-04-24 04:34 | 31.87015 | 120.89279 | 2909 ft | 262 kts | 336° |
| 2026-04-24 04:35 | 31.88668 | 120.88394 | 2909 ft | 262 kts | 336° |
| 2026-04-24 04:35 | 31.90315 | 120.87511 | 2909 ft | 262 kts | 336° |
| 2026-04-24 04:35 | 31.91978 | 120.86620 | 2909 ft | 262 kts | 336° |
| 2026-04-24 04:35 | 31.93646 | 120.85726 | 2909 ft | 262 kts | 336° |
| 2026-04-24 04:36 | 31.95290 | 120.84843 | 2909 ft | 262 kts | 336° |
| 2026-04-24 04:36 | 31.96939 | 120.83958 | 2909 ft | 262 kts | 336° |
| 2026-04-24 04:36 | 31.98609 | 120.83061 | 2909 ft | 262 kts | 336° |
| 2026-04-24 04:36 | 32.00257 | 120.82175 | 2909 ft | 262 kts | 336° |
| 2026-04-24 04:37 | 32.01913 | 120.81284 | 2909 ft | 262 kts | 336° |
| 2026-04-24 04:37 | 32.03573 | 120.80391 | 2909 ft | 262 kts | 336° |
| 2026-04-24 04:37 | 32.05228 | 120.79500 | 2909 ft | 262 kts | 336° |
| 2026-04-24 04:37 | 32.06884 | 120.78608 | 2909 ft | 262 kts | 336° |
| 2026-04-24 04:38 | 32.08539 | 120.77717 | 2909 ft | 262 kts | 336° |
| 2026-04-24 04:38 | 32.10200 | 120.76822 | 2909 ft | 262 kts | 336° |
| 2026-04-24 04:38 | 32.11853 | 120.75930 | 2909 ft | 262 kts | 336° |
| 2026-04-24 04:38 | 32.13524 | 120.75029 | 2909 ft | 262 kts | 336° |
| 2026-04-24 04:39 | 32.15154 | 120.74115 | 2906 ft | 262 kts | 329° |
| 2026-04-24 04:39 | 32.16468 | 120.72672 | 2901 ft | 262 kts | 300° |
| 2026-04-24 04:39 | 32.16956 | 120.70618 | 2929 ft | 263 kts | 274° |
| 2026-04-24 04:39 | 32.17091 | 120.68449 | 2904 ft | 265 kts | 275° |
| 2026-04-24 04:40 | 32.17260 | 120.66308 | 2905 ft | 262 kts | 276° |
| 2026-04-24 04:40 | 32.17441 | 120.64153 | 2911 ft | 263 kts | 276° |
| 2026-04-24 04:40 | 32.17622 | 120.62002 | 2909 ft | 263 kts | 276° |
| 2026-04-24 04:40 | 32.17800 | 120.59872 | 2909 ft | 263 kts | 276° |
| 2026-04-24 04:41 | 32.17981 | 120.57710 | 2909 ft | 263 kts | 276° |
| 2026-04-24 04:41 | 32.18159 | 120.55575 | 2910 ft | 263 kts | 276° |
| 2026-04-24 04:41 | 32.18338 | 120.53426 | 2909 ft | 263 kts | 276° |
| 2026-04-24 04:41 | 32.18518 | 120.51251 | 2910 ft | 263 kts | 276° |
| 2026-04-24 04:42 | 32.18695 | 120.49118 | 2909 ft | 263 kts | 276° |
| 2026-04-24 04:42 | 32.18873 | 120.46963 | 2909 ft | 263 kts | 276° |
| 2026-04-24 04:42 | 32.19051 | 120.44801 | 2912 ft | 263 kts | 276° |
| 2026-04-24 04:42 | 32.19228 | 120.42658 | 2915 ft | 264 kts | 276° |
| 2026-04-24 04:43 | 32.19407 | 120.40488 | 2917 ft | 265 kts | 276° |
| 2026-04-24 04:43 | 32.19584 | 120.38326 | 2919 ft | 265 kts | 276° |
| 2026-04-24 04:43 | 32.19762 | 120.36150 | 2922 ft | 266 kts | 276° |
| 2026-04-24 04:43 | 32.19939 | 120.33997 | 2924 ft | 266 kts | 276° |
| 2026-04-24 04:44 | 32.20118 | 120.31805 | 2927 ft | 267 kts | 275° |
| 2026-04-24 04:44 | 32.20285 | 120.29625 | 2927 ft | 267 kts | 271° |
| 2026-04-24 04:44 | 32.19983 | 120.27479 | 2924 ft | 266 kts | 245° |
| 2026-04-24 04:44 | 32.19137 | 120.25549 | 2950 ft | 267 kts | 240° |
| 2026-04-24 04:45 | 32.18208 | 120.23616 | 2928 ft | 268 kts | 240° |
| 2026-04-24 04:45 | 32.17300 | 120.21690 | 2939 ft | 268 kts | 240° |
| 2026-04-24 04:45 | 32.16438 | 120.19780 | 2933 ft | 264 kts | 240° |
| 2026-04-24 04:45 | 32.15556 | 120.17860 | 2938 ft | 268 kts | 240° |
| 2026-04-24 04:46 | 32.14654 | 120.15914 | 2936 ft | 269 kts | 241° |
| 2026-04-24 04:46 | 32.13771 | 120.13982 | 2932 ft | 267 kts | 241° |
| 2026-04-24 04:46 | 32.12888 | 120.12060 | 2935 ft | 268 kts | 241° |
| 2026-04-24 04:46 | 32.12003 | 120.10121 | 2934 ft | 267 kts | 241° |
| 2026-04-24 04:47 | 32.11123 | 120.08188 | 2934 ft | 265 kts | 240° |
| 2026-04-24 04:47 | 32.10241 | 120.06274 | 2934 ft | 267 kts | 240° |
| 2026-04-24 04:47 | 32.09346 | 120.04345 | 2935 ft | 268 kts | 241° |
| 2026-04-24 04:47 | 32.08464 | 120.02414 | 2933 ft | 268 kts | 240° |
| 2026-04-24 04:48 | 32.07590 | 120.00513 | 2935 ft | 267 kts | 240° |
| 2026-04-24 04:48 | 32.06698 | 119.98568 | 2937 ft | 266 kts | 240° |
| 2026-04-24 04:48 | 32.05823 | 119.96656 | 2934 ft | 264 kts | 240° |
| 2026-04-24 04:48 | 32.04951 | 119.94772 | 2939 ft | 266 kts | 240° |
| 2026-04-24 04:49 | 32.04069 | 119.92852 | 2936 ft | 264 kts | 240° |
| 2026-04-24 04:49 | 32.03212 | 119.90956 | 2934 ft | 263 kts | 240° |
| 2026-04-24 04:49 | 32.02338 | 119.89038 | 2939 ft | 268 kts | 241° |
| 2026-04-24 04:49 | 32.01439 | 119.87099 | 2936 ft | 269 kts | 240° |
| 2026-04-24 04:50 | 32.00579 | 119.85175 | 2929 ft | 263 kts | 241° |
| 2026-04-24 04:50 | 31.99717 | 119.83253 | 2943 ft | 268 kts | 241° |
| 2026-04-24 04:50 | 31.98843 | 119.81330 | 2932 ft | 269 kts | 241° |
| 2026-04-24 04:50 | 31.97957 | 119.79391 | 2936 ft | 267 kts | 242° |
| 2026-04-24 04:51 | 31.97082 | 119.77450 | 2937 ft | 268 kts | 242° |
| 2026-04-24 04:51 | 31.96203 | 119.75504 | 2936 ft | 268 kts | 241° |
| 2026-04-24 04:51 | 31.95334 | 119.73581 | 2937 ft | 267 kts | 241° |
| 2026-04-24 04:51 | 31.94457 | 119.71652 | 2936 ft | 266 kts | 241° |
| 2026-04-24 04:52 | 31.93606 | 119.69699 | 2936 ft | 264 kts | 243° |
| 2026-04-24 04:52 | 31.92778 | 119.67770 | 2943 ft | 269 kts | 242° |
| 2026-04-24 04:52 | 31.91935 | 119.65796 | 2932 ft | 268 kts | 243° |
| 2026-04-24 04:52 | 31.91093 | 119.63836 | 2936 ft | 268 kts | 242° |
| 2026-04-24 04:53 | 31.90268 | 119.61888 | 2936 ft | 267 kts | 242° |
| 2026-04-24 04:53 | 31.89435 | 119.59942 | 2937 ft | 268 kts | 243° |
| 2026-04-24 04:53 | 31.88591 | 119.57996 | 2937 ft | 268 kts | 243° |
| 2026-04-24 04:53 | 31.87760 | 119.56033 | 2934 ft | 266 kts | 243° |
| 2026-04-24 04:54 | 31.86926 | 119.54096 | 2938 ft | 267 kts | 242° |
| 2026-04-24 04:54 | 31.86096 | 119.52142 | 2935 ft | 265 kts | 242° |
| 2026-04-24 04:54 | 31.85273 | 119.50228 | 2937 ft | 267 kts | 242° |
| 2026-04-24 04:54 | 31.84423 | 119.48278 | 2939 ft | 267 kts | 242° |
| 2026-04-24 04:55 | 31.83581 | 119.46320 | 2936 ft | 269 kts | 243° |
| 2026-04-24 04:55 | 31.82744 | 119.44370 | 2934 ft | 267 kts | 243° |
| 2026-04-24 04:55 | 31.81893 | 119.42416 | 2935 ft | 266 kts | 242° |
| 2026-04-24 04:55 | 31.81058 | 119.40468 | 2933 ft | 265 kts | 242° |
| 2026-04-24 04:56 | 31.80236 | 119.38569 | 3185 ft | 262 kts | 242° |
| 2026-04-24 04:56 | 31.79377 | 119.36626 | 3817 ft | 271 kts | 242° |
| 2026-04-24 04:56 | 31.78509 | 119.34658 | 4411 ft | 271 kts | 242° |
| 2026-04-24 04:56 | 31.77657 | 119.32689 | 5003 ft | 273 kts | 242° |
| 2026-04-24 04:57 | 31.76776 | 119.30675 | 5613 ft | 275 kts | 242° |
| 2026-04-24 04:57 | 31.75904 | 119.28693 | 6206 ft | 277 kts | 241° |
| 2026-04-24 04:57 | 31.75004 | 119.26675 | 6811 ft | 283 kts | 241° |
| 2026-04-24 04:57 | 31.74094 | 119.24620 | 7438 ft | 285 kts | 242° |
| 2026-04-24 04:58 | 31.73190 | 119.22556 | 8062 ft | 286 kts | 242° |
| 2026-04-24 04:58 | 31.72273 | 119.20470 | 8689 ft | 289 kts | 242° |
| 2026-04-24 04:58 | 31.71359 | 119.18394 | 9307 ft | 292 kts | 242° |
| 2026-04-24 04:58 | 31.70422 | 119.16258 | 9938 ft | 294 kts | 242° |
| 2026-04-24 04:59 | 31.69483 | 119.14130 | 10564 ft | 296 kts | 242° |
| 2026-04-24 04:59 | 31.68532 | 119.11977 | 11191 ft | 299 kts | 242° |
| 2026-04-24 04:59 | 31.67584 | 119.09832 | 11810 ft | 302 kts | 242° |
| 2026-04-24 04:59 | 31.66611 | 119.07620 | 12440 ft | 305 kts | 242° |
| 2026-04-24 05:00 | 31.65691 | 119.05384 | 13060 ft | 310 kts | 249° |
| 2026-04-24 05:00 | 31.65184 | 119.02895 | 13682 ft | 317 kts | 266° |
| 2026-04-24 05:00 | 31.65246 | 119.00286 | 14330 ft | 322 kts | 274° |
| 2026-04-24 05:00 | 31.65463 | 118.97654 | 14955 ft | 328 kts | 275° |
| 2026-04-24 05:01 | 31.65688 | 118.94958 | 15575 ft | 334 kts | 275° |
| 2026-04-24 05:01 | 31.65906 | 118.92233 | 16127 ft | 342 kts | 274° |
| 2026-04-24 05:01 | 31.66122 | 118.89449 | 16674 ft | 349 kts | 274° |
| 2026-04-24 05:01 | 31.66342 | 118.86568 | 17229 ft | 355 kts | 274° |
| 2026-04-24 05:02 | 31.66560 | 118.83675 | 17777 ft | 361 kts | 274° |
| 2026-04-24 05:02 | 31.66779 | 118.80743 | 18323 ft | 367 kts | 274° |
| 2026-04-24 05:02 | 31.67003 | 118.77737 | 18856 ft | 373 kts | 273° |
| 2026-04-24 05:02 | 31.67230 | 118.74686 | 19382 ft | 378 kts | 273° |
| 2026-04-24 05:03 | 31.67457 | 118.71608 | 19905 ft | 383 kts | 273° |
| 2026-04-24 05:03 | 31.67690 | 118.68457 | 20435 ft | 388 kts | 273° |
| 2026-04-24 05:03 | 31.67924 | 118.65276 | 20963 ft | 392 kts | 272° |
| 2026-04-24 05:03 | 31.68158 | 118.62057 | 21492 ft | 395 kts | 272° |
| 2026-04-24 05:04 | 31.68391 | 118.58861 | 22013 ft | 399 kts | 272° |
| 2026-04-24 05:04 | 31.68628 | 118.55604 | 22540 ft | 401 kts | 272° |
| 2026-04-24 05:04 | 31.68865 | 118.52322 | 23067 ft | 404 kts | 272° |
| 2026-04-24 05:04 | 31.69100 | 118.49056 | 23589 ft | 405 kts | 272° |
| 2026-04-24 05:05 | 31.69340 | 118.45772 | 24112 ft | 407 kts | 272° |
| 2026-04-24 05:05 | 31.69597 | 118.42466 | 24637 ft | 408 kts | 272° |
| 2026-04-24 05:05 | 31.69879 | 118.39124 | 25165 ft | 409 kts | 272° |
| 2026-04-24 05:05 | 31.70187 | 118.35804 | 25612 ft | 412 kts | 273° |
| 2026-04-24 05:06 | 31.70524 | 118.32385 | 25646 ft | 420 kts | 273° |
| 2026-04-24 05:06 | 31.70870 | 118.28958 | 25590 ft | 428 kts | 274° |
| 2026-04-24 05:06 | 31.71234 | 118.25493 | 25594 ft | 428 kts | 274° |
| 2026-04-24 05:06 | 31.71605 | 118.22034 | 25589 ft | 420 kts | 274° |
| 2026-04-24 05:07 | 31.71967 | 118.18632 | 25593 ft | 416 kts | 273° |
| 2026-04-24 05:07 | 31.72309 | 118.15283 | 25596 ft | 417 kts | 273° |
| 2026-04-24 05:07 | 31.72640 | 118.11858 | 25594 ft | 419 kts | 272° |
| 2026-04-24 05:07 | 31.72951 | 118.08474 | 25593 ft | 420 kts | 272° |
| 2026-04-24 05:08 | 31.73254 | 118.05051 | 25593 ft | 420 kts | 272° |
| 2026-04-24 05:08 | 31.73530 | 118.01615 | 25592 ft | 419 kts | 271° |
| 2026-04-24 05:08 | 31.73766 | 117.98222 | 25592 ft | 417 kts | 271° |
| 2026-04-24 05:08 | 31.73965 | 117.94791 | 25593 ft | 417 kts | 270° |
| 2026-04-24 05:09 | 31.74134 | 117.91406 | 25592 ft | 416 kts | 270° |
| 2026-04-24 05:09 | 31.74281 | 117.87978 | 25592 ft | 416 kts | 269° |
| 2026-04-24 05:09 | 31.74410 | 117.84568 | 25594 ft | 417 kts | 269° |
| 2026-04-24 05:09 | 31.74533 | 117.81126 | 25593 ft | 417 kts | 269° |
| 2026-04-24 05:10 | 31.74651 | 117.77725 | 25594 ft | 418 kts | 269° |
| 2026-04-24 05:10 | 31.74779 | 117.74276 | 25592 ft | 418 kts | 269° |
| 2026-04-24 05:10 | 31.74923 | 117.70863 | 25592 ft | 418 kts | 270° |
| 2026-04-24 05:10 | 31.75093 | 117.67409 | 25592 ft | 418 kts | 270° |
| 2026-04-24 05:11 | 31.75281 | 117.63998 | 25593 ft | 418 kts | 270° |
| 2026-04-24 05:11 | 31.75489 | 117.60527 | 25593 ft | 418 kts | 271° |
| 2026-04-24 05:11 | 31.75701 | 117.57121 | 25593 ft | 418 kts | 271° |
| 2026-04-24 05:11 | 31.75923 | 117.53719 | 25592 ft | 418 kts | 271° |
| 2026-04-24 05:12 | 31.76153 | 117.50271 | 25593 ft | 419 kts | 271° |
| 2026-04-24 05:12 | 31.76381 | 117.46838 | 25593 ft | 419 kts | 271° |
| 2026-04-24 05:12 | 31.76609 | 117.43395 | 25593 ft | 419 kts | 271° |
| 2026-04-24 05:12 | 31.76840 | 117.39990 | 25593 ft | 418 kts | 271° |
| 2026-04-24 05:13 | 31.77620 | 117.33093 | 25592 ft | 423 kts | 280° |
| 2026-04-24 05:13 | 31.78599 | 117.29793 | 25590 ft | 428 kts | 292° |
| 2026-04-24 05:13 | 31.80112 | 117.26798 | 25598 ft | 432 kts | 302° |
| 2026-04-24 05:14 | 31.82015 | 117.23965 | 25596 ft | 434 kts | 307° |
| 2026-04-24 05:14 | 31.83959 | 117.21262 | 25592 ft | 433 kts | 307° |
| 2026-04-24 05:14 | 31.85913 | 117.18555 | 25592 ft | 433 kts | 307° |
| 2026-04-24 05:14 | 31.87868 | 117.15846 | 25593 ft | 434 kts | 307° |
| 2026-04-24 05:15 | 31.89826 | 117.13129 | 25592 ft | 434 kts | 307° |
| 2026-04-24 05:15 | 31.91785 | 117.10409 | 25593 ft | 434 kts | 307° |
| 2026-04-24 05:15 | 31.93732 | 117.07710 | 25593 ft | 431 kts | 307° |
| 2026-04-24 05:15 | 31.95672 | 117.05016 | 25592 ft | 427 kts | 307° |
| 2026-04-24 05:16 | 31.97602 | 117.02335 | 25593 ft | 424 kts | 307° |
| 2026-04-24 05:16 | 31.99505 | 116.99692 | 25592 ft | 421 kts | 307° |
| 2026-04-24 05:16 | 32.01406 | 116.97057 | 25593 ft | 419 kts | 307° |
| 2026-04-24 05:16 | 32.03299 | 116.94431 | 25593 ft | 417 kts | 307° |
| 2026-04-24 05:17 | 32.05155 | 116.91855 | 25593 ft | 414 kts | 307° |
| 2026-04-24 05:17 | 32.07045 | 116.89230 | 25593 ft | 412 kts | 307° |
| 2026-04-24 05:17 | 32.08889 | 116.86669 | 25592 ft | 410 kts | 307° |
| 2026-04-24 05:17 | 32.10741 | 116.84096 | 25593 ft | 410 kts | 307° |
| 2026-04-24 05:18 | 32.12599 | 116.81512 | 25593 ft | 411 kts | 307° |
| 2026-04-24 05:18 | 32.14435 | 116.78958 | 25593 ft | 411 kts | 307° |
| 2026-04-24 05:18 | 32.16295 | 116.76369 | 25593 ft | 411 kts | 307° |
| 2026-04-24 05:18 | 32.18147 | 116.73789 | 25593 ft | 411 kts | 307° |
| 2026-04-24 05:19 | 32.19991 | 116.71195 | 25592 ft | 411 kts | 307° |
| 2026-04-24 05:19 | 32.21819 | 116.68569 | 25593 ft | 411 kts | 307° |
| 2026-04-24 05:19 | 32.23623 | 116.65968 | 25593 ft | 411 kts | 307° |
| 2026-04-24 05:19 | 32.25446 | 116.63339 | 25593 ft | 411 kts | 307° |
| 2026-04-24 05:20 | 32.27260 | 116.60721 | 25593 ft | 411 kts | 307° |
| 2026-04-24 05:20 | 32.29053 | 116.58132 | 25593 ft | 411 kts | 307° |
| 2026-04-24 05:20 | 32.30876 | 116.55502 | 25593 ft | 411 kts | 307° |
| 2026-04-24 05:20 | 32.32695 | 116.52875 | 25593 ft | 411 kts | 307° |
| 2026-04-24 05:21 | 32.34499 | 116.50268 | 25593 ft | 411 kts | 307° |
| 2026-04-24 05:21 | 32.36305 | 116.47657 | 25648 ft | 409 kts | 307° |
| 2026-04-24 05:21 | 32.38121 | 116.45029 | 25677 ft | 411 kts | 307° |
| 2026-04-24 05:21 | 32.39914 | 116.42433 | 25673 ft | 411 kts | 307° |
| 2026-04-24 05:22 | 32.41718 | 116.39819 | 25674 ft | 411 kts | 307° |
| 2026-04-24 05:22 | 32.43518 | 116.37210 | 25673 ft | 410 kts | 307° |
| 2026-04-24 05:22 | 32.45325 | 116.34589 | 25674 ft | 410 kts | 306° |
| 2026-04-24 05:22 | 32.47119 | 116.31983 | 25674 ft | 410 kts | 306° |
| 2026-04-24 05:23 | 32.48923 | 116.29362 | 25674 ft | 410 kts | 306° |
| 2026-04-24 05:23 | 32.50712 | 116.26759 | 25674 ft | 410 kts | 306° |
| 2026-04-24 05:23 | 32.52517 | 116.24133 | 25674 ft | 410 kts | 306° |
| 2026-04-24 05:23 | 32.54321 | 116.21506 | 25674 ft | 410 kts | 306° |
| 2026-04-24 05:24 | 32.56101 | 116.18915 | 25674 ft | 410 kts | 306° |
| 2026-04-24 05:24 | 32.57922 | 116.16299 | 25674 ft | 410 kts | 307° |
| 2026-04-24 05:24 | 32.59771 | 116.13699 | 25674 ft | 410 kts | 307° |
| 2026-04-24 05:24 | 32.61592 | 116.11145 | 25674 ft | 410 kts | 307° |
| 2026-04-24 05:25 | 32.63448 | 116.08537 | 25674 ft | 410 kts | 307° |
| 2026-04-24 05:25 | 32.65279 | 116.05962 | 25674 ft | 411 kts | 307° |
| 2026-04-24 05:25 | 32.67121 | 116.03369 | 25674 ft | 411 kts | 307° |
| 2026-04-24 05:25 | 32.68964 | 116.00772 | 25674 ft | 411 kts | 307° |
| 2026-04-24 05:26 | 32.70784 | 115.98203 | 25674 ft | 411 kts | 307° |
| 2026-04-24 05:26 | 32.72631 | 115.95594 | 25674 ft | 411 kts | 307° |
| 2026-04-24 05:26 | 32.74453 | 115.93020 | 25674 ft | 410 kts | 307° |
| 2026-04-24 05:26 | 32.76291 | 115.90420 | 25674 ft | 410 kts | 307° |
| 2026-04-24 05:27 | 32.78122 | 115.87827 | 25674 ft | 410 kts | 307° |
| 2026-04-24 05:27 | 32.79933 | 115.85260 | 25674 ft | 410 kts | 307° |
| 2026-04-24 05:27 | 32.81765 | 115.82664 | 25674 ft | 410 kts | 307° |
| 2026-04-24 05:27 | 32.83610 | 115.80046 | 25674 ft | 410 kts | 307° |
| 2026-04-24 05:28 | 32.85455 | 115.77456 | 25673 ft | 411 kts | 309° |
| 2026-04-24 05:28 | 32.87405 | 115.75002 | 25674 ft | 413 kts | 313° |
| 2026-04-24 05:28 | 32.89550 | 115.72753 | 25671 ft | 416 kts | 320° |
| 2026-04-24 05:28 | 32.91979 | 115.70806 | 25677 ft | 418 kts | 325° |
| 2026-04-24 05:29 | 32.94421 | 115.69025 | 25674 ft | 418 kts | 326° |
| 2026-04-24 05:29 | 32.96928 | 115.67221 | 25674 ft | 418 kts | 326° |
| 2026-04-24 05:29 | 32.99395 | 115.65454 | 25674 ft | 417 kts | 326° |
| 2026-04-24 05:29 | 33.01883 | 115.63673 | 25673 ft | 415 kts | 325° |
| 2026-04-24 05:30 | 33.04377 | 115.61887 | 25673 ft | 414 kts | 325° |
| 2026-04-24 05:30 | 33.06831 | 115.60127 | 25674 ft | 412 kts | 325° |
| 2026-04-24 05:30 | 33.09281 | 115.58345 | 25673 ft | 410 kts | 322° |
| 2026-04-24 05:30 | 33.11583 | 115.56417 | 25675 ft | 406 kts | 319° |
| 2026-04-24 05:31 | 33.13746 | 115.54273 | 25671 ft | 401 kts | 312° |
| 2026-04-24 05:31 | 33.15675 | 115.51851 | 25677 ft | 399 kts | 308° |
| 2026-04-24 05:31 | 33.17499 | 115.49400 | 25676 ft | 400 kts | 308° |
| 2026-04-24 05:31 | 33.19344 | 115.46902 | 25674 ft | 400 kts | 308° |
| 2026-04-24 05:32 | 33.21173 | 115.44415 | 25673 ft | 400 kts | 308° |
| 2026-04-24 05:32 | 33.22991 | 115.41936 | 25672 ft | 399 kts | 308° |
| 2026-04-24 05:32 | 33.24826 | 115.39429 | 25666 ft | 399 kts | 308° |
| 2026-04-24 05:32 | 33.26648 | 115.36933 | 25662 ft | 400 kts | 307° |
| 2026-04-24 05:33 | 33.28470 | 115.34433 | 25656 ft | 400 kts | 307° |
| 2026-04-24 05:33 | 33.30306 | 115.31908 | 25647 ft | 401 kts | 307° |
| 2026-04-24 05:33 | 33.32117 | 115.29418 | 25638 ft | 400 kts | 307° |
| 2026-04-24 05:34 | 33.35757 | 115.24406 | 25627 ft | 399 kts | 307° |
| 2026-04-24 05:34 | 33.37570 | 115.21909 | 25623 ft | 400 kts | 307° |
| 2026-04-24 05:34 | 33.39388 | 115.19399 | 25620 ft | 399 kts | 307° |
| 2026-04-24 05:34 | 33.41201 | 115.16891 | 25620 ft | 398 kts | 307° |
| 2026-04-24 05:35 | 33.42995 | 115.14407 | 25619 ft | 397 kts | 307° |
| 2026-04-24 05:35 | 33.44788 | 115.11926 | 25620 ft | 396 kts | 308° |
| 2026-04-24 05:35 | 33.46597 | 115.09422 | 25620 ft | 394 kts | 308° |
| 2026-04-24 05:35 | 33.48371 | 115.06963 | 25619 ft | 393 kts | 308° |
| 2026-04-24 05:36 | 33.50171 | 115.04467 | 25620 ft | 392 kts | 308° |
| 2026-04-24 05:36 | 33.51946 | 115.02003 | 25619 ft | 391 kts | 308° |
| 2026-04-24 05:36 | 33.53703 | 114.99564 | 25620 ft | 390 kts | 309° |
| 2026-04-24 05:36 | 33.55476 | 114.97102 | 25619 ft | 389 kts | 309° |
| 2026-04-24 05:37 | 33.57231 | 114.94665 | 25620 ft | 389 kts | 309° |
| 2026-04-24 05:37 | 33.59008 | 114.92199 | 25620 ft | 389 kts | 309° |
| 2026-04-24 05:37 | 33.60784 | 114.89732 | 25620 ft | 389 kts | 309° |
| 2026-04-24 05:37 | 33.62524 | 114.87315 | 25620 ft | 389 kts | 309° |
| 2026-04-24 05:38 | 33.64303 | 114.84837 | 25620 ft | 389 kts | 309° |
| 2026-04-24 05:38 | 33.66049 | 114.82405 | 25620 ft | 389 kts | 309° |
| 2026-04-24 05:38 | 33.67844 | 114.79967 | 25618 ft | 389 kts | 312° |
| 2026-04-24 05:38 | 33.69856 | 114.77747 | 25619 ft | 391 kts | 320° |
| 2026-04-24 05:39 | 33.72116 | 114.75986 | 25619 ft | 395 kts | 330° |
| 2026-04-24 05:39 | 33.74675 | 114.74721 | 25626 ft | 398 kts | 337° |
| 2026-04-24 05:39 | 33.77296 | 114.73681 | 25619 ft | 400 kts | 339° |
| 2026-04-24 05:39 | 33.79925 | 114.72670 | 25619 ft | 400 kts | 339° |
| 2026-04-24 05:40 | 33.82597 | 114.71641 | 25619 ft | 399 kts | 339° |
| 2026-04-24 05:40 | 33.85215 | 114.70631 | 25620 ft | 399 kts | 339° |
| 2026-04-24 05:40 | 33.87857 | 114.69609 | 25620 ft | 399 kts | 339° |
| 2026-04-24 05:40 | 33.90492 | 114.68590 | 25578 ft | 400 kts | 339° |
| 2026-04-24 05:41 | 33.93153 | 114.67554 | 25173 ft | 404 kts | 339° |
| 2026-04-24 05:41 | 33.95784 | 114.66531 | 24748 ft | 400 kts | 339° |
| 2026-04-24 05:41 | 33.98439 | 114.65498 | 24304 ft | 398 kts | 339° |
| 2026-04-24 05:41 | 34.01069 | 114.64475 | 23857 ft | 399 kts | 339° |
| 2026-04-24 05:42 | 34.03705 | 114.63446 | 23412 ft | 400 kts | 340° |
| 2026-04-24 05:42 | 34.06345 | 114.62416 | 22964 ft | 402 kts | 340° |
| 2026-04-24 05:42 | 34.08954 | 114.61350 | 22516 ft | 402 kts | 336° |
| 2026-04-24 05:42 | 34.11492 | 114.59885 | 22060 ft | 401 kts | 328° |
| 2026-04-24 05:43 | 34.13691 | 114.57883 | 21606 ft | 401 kts | 315° |
| 2026-04-24 05:43 | 34.15440 | 114.55340 | 21155 ft | 391 kts | 305° |
| 2026-04-24 05:43 | 34.16773 | 114.52524 | 20701 ft | 383 kts | 296° |
| 2026-04-24 05:43 | 34.17842 | 114.49588 | 20253 ft | 381 kts | 294° |
| 2026-04-24 05:44 | 34.18863 | 114.46656 | 19807 ft | 382 kts | 294° |
| 2026-04-24 05:44 | 34.19886 | 114.43709 | 19359 ft | 382 kts | 294° |
| 2026-04-24 05:44 | 34.20916 | 114.40746 | 18867 ft | 377 kts | 294° |
| 2026-04-24 05:44 | 34.21908 | 114.37890 | 18367 ft | 371 kts | 294° |
| 2026-04-24 05:45 | 34.22904 | 114.35023 | 17863 ft | 365 kts | 295° |
| 2026-04-24 05:45 | 34.23879 | 114.32220 | 17363 ft | 361 kts | 294° |
| 2026-04-24 05:45 | 34.24837 | 114.29462 | 16870 ft | 360 kts | 294° |
| 2026-04-24 05:45 | 34.25802 | 114.26685 | 16371 ft | 359 kts | 294° |
| 2026-04-24 05:46 | 34.26769 | 114.23904 | 15870 ft | 358 kts | 294° |
| 2026-04-24 05:46 | 34.27729 | 114.21136 | 15369 ft | 357 kts | 294° |
| 2026-04-24 05:46 | 34.28686 | 114.18378 | 14868 ft | 355 kts | 294° |
| 2026-04-24 05:46 | 34.29638 | 114.15632 | 14367 ft | 353 kts | 294° |
| 2026-04-24 05:47 | 34.30587 | 114.12893 | 13865 ft | 352 kts | 294° |
| 2026-04-24 05:47 | 34.31517 | 114.10205 | 13373 ft | 348 kts | 294° |
| 2026-04-24 05:47 | 34.32442 | 114.07521 | 12939 ft | 342 kts | 293° |
| 2026-04-24 05:47 | 34.33315 | 114.04907 | 12517 ft | 336 kts | 292° |
| 2026-04-24 05:48 | 34.34184 | 114.02270 | 12087 ft | 332 kts | 292° |
| 2026-04-24 05:48 | 34.35024 | 113.99736 | 11823 ft | 322 kts | 293° |
| 2026-04-24 05:48 | 34.35856 | 113.97296 | 11816 ft | 308 kts | 293° |
| 2026-04-24 05:48 | 34.36673 | 113.94915 | 11821 ft | 307 kts | 293° |
| 2026-04-24 05:49 | 34.37492 | 113.92532 | 11815 ft | 300 kts | 293° |
| 2026-04-24 05:49 | 34.38276 | 113.90241 | 11720 ft | 289 kts | 293° |
| 2026-04-24 05:49 | 34.39018 | 113.88075 | 11600 ft | 283 kts | 293° |
| 2026-04-24 05:49 | 34.39769 | 113.85877 | 11434 ft | 277 kts | 293° |
| 2026-04-24 05:50 | 34.40487 | 113.83777 | 11249 ft | 270 kts | 293° |
| 2026-04-24 05:50 | 34.41204 | 113.81678 | 11083 ft | 262 kts | 293° |
| 2026-04-24 05:50 | 34.41892 | 113.79662 | 10909 ft | 258 kts | 293° |
| 2026-04-24 05:50 | 34.42579 | 113.77650 | 10691 ft | 259 kts | 294° |
| 2026-04-24 05:51 | 34.43275 | 113.75615 | 10450 ft | 260 kts | 294° |
| 2026-04-24 05:51 | 34.43961 | 113.73614 | 10208 ft | 259 kts | 294° |
| 2026-04-24 05:51 | 34.44647 | 113.71615 | 9956 ft | 257 kts | 294° |
| 2026-04-24 05:51 | 34.45333 | 113.69610 | 9701 ft | 255 kts | 294° |
| 2026-04-24 05:52 | 34.46009 | 113.67635 | 9468 ft | 246 kts | 294° |
| 2026-04-24 05:52 | 34.46652 | 113.65745 | 9193 ft | 239 kts | 294° |
| 2026-04-24 05:52 | 34.47272 | 113.63908 | 8929 ft | 232 kts | 294° |
| 2026-04-24 05:52 | 34.47880 | 113.62109 | 8674 ft | 231 kts | 294° |
| 2026-04-24 05:53 | 34.48495 | 113.60299 | 8371 ft | 231 kts | 294° |
| 2026-04-24 05:53 | 34.49098 | 113.58524 | 8074 ft | 229 kts | 294° |
| 2026-04-24 05:53 | 34.49710 | 113.56731 | 7741 ft | 228 kts | 294° |
| 2026-04-24 05:53 | 34.50315 | 113.54959 | 7413 ft | 228 kts | 294° |
| 2026-04-24 05:54 | 34.50911 | 113.53190 | 7085 ft | 226 kts | 294° |
| 2026-04-24 05:54 | 34.51509 | 113.51423 | 6752 ft | 226 kts | 294° |
| 2026-04-24 05:54 | 34.52097 | 113.49674 | 6428 ft | 224 kts | 294° |
| 2026-04-24 05:54 | 34.52847 | 113.48040 | 6086 ft | 225 kts | 312° |
| 2026-04-24 05:55 | 34.54093 | 113.46980 | 5780 ft | 215 kts | 342° |
| 2026-04-24 05:55 | 34.55525 | 113.46758 | 5412 ft | 205 kts | 7° |
| 2026-04-24 05:55 | 34.56881 | 113.47207 | 5066 ft | 197 kts | 24° |
| 2026-04-24 05:55 | 34.58123 | 113.47849 | 4745 ft | 191 kts | 25° |
| 2026-04-24 05:56 | 34.59331 | 113.48470 | 4460 ft | 189 kts | 24° |
| 2026-04-24 05:56 | 34.60554 | 113.49075 | 4194 ft | 190 kts | 24° |
| 2026-04-24 05:56 | 34.61738 | 113.49770 | 3930 ft | 194 kts | 39° |
| 2026-04-24 05:56 | 34.62517 | 113.51032 | 3900 ft | 184 kts | 77° |
| 2026-04-24 05:57 | 34.62483 | 113.52564 | 3944 ft | 187 kts | 103° |
| 2026-04-24 05:57 | 34.62084 | 113.54067 | 3903 ft | 188 kts | 110° |
| 2026-04-24 05:57 | 34.61603 | 113.55534 | 3908 ft | 186 kts | 113° |
| 2026-04-24 05:57 | 34.61113 | 113.56996 | 3908 ft | 186 kts | 112° |
| 2026-04-24 05:58 | 34.60623 | 113.58451 | 3908 ft | 186 kts | 111° |
| 2026-04-24 05:58 | 34.60152 | 113.59852 | 3906 ft | 177 kts | 113° |
| 2026-04-24 05:58 | 34.59688 | 113.61226 | 3905 ft | 175 kts | 113° |
| 2026-04-24 05:58 | 34.59225 | 113.62599 | 3911 ft | 176 kts | 113° |
| 2026-04-24 05:59 | 34.58767 | 113.63956 | 3697 ft | 169 kts | 113° |
| 2026-04-24 05:59 | 34.58335 | 113.65235 | 3539 ft | 162 kts | 111° |
| 2026-04-24 05:59 | 34.57911 | 113.66492 | 3365 ft | 161 kts | 112° |
| 2026-04-24 05:59 | 34.57486 | 113.67749 | 3104 ft | 158 kts | 112° |
| 2026-04-24 06:00 | 34.57075 | 113.68962 | 2905 ft | 148 kts | 112° |
| 2026-04-24 06:00 | 34.56685 | 113.70116 | 2671 ft | 147 kts | 113° |
| 2026-04-24 06:00 | 34.56293 | 113.71273 | 2479 ft | 146 kts | 112° |
| 2026-04-24 06:00 | 34.55909 | 113.72411 | 2276 ft | 146 kts | 114° |
| 2026-04-24 06:01 | 34.55521 | 113.73553 | 2082 ft | 149 kts | 115° |
| 2026-04-24 06:01 | 34.55123 | 113.74728 | 1877 ft | 148 kts | 114° |
| 2026-04-24 06:01 | 34.54739 | 113.75854 | 1671 ft | 144 kts | 115° |
| 2026-04-24 06:01 | 34.54354 | 113.76999 | 1481 ft | 148 kts | 115° |
| 2026-04-24 06:02 | 34.53963 | 113.78141 | 1288 ft | 147 kts | 115° |
| 2026-04-24 06:02 | 34.53566 | 113.79284 | 1072 ft | 145 kts | 115° |
| 2026-04-24 06:02 | 34.53190 | 113.80438 | 882 ft | 148 kts | 115° |
| 2026-04-24 06:02 | 34.52796 | 113.81580 | 693 ft | 147 kts | 114° |
| 2026-04-24 06:03 | 34.52409 | 113.82730 | 511 ft | 141 kts | 115° |
| 2026-04-24 06:03 | 34.52098 | 113.83639 | 505 ft | 88 kts | 112° |
| 2026-04-24 06:03 | 34.51932 | 113.84126 | 505 ft | 37 kts | 112° |
| 2026-04-24 06:03 | 34.51883 | 113.84341 | 505 ft | 20 kts | 93° |
| 2026-04-24 06:04 | 34.51888 | 113.84465 | 505 ft | 10 kts | 83° |
| 2026-04-24 06:04 | 34.51895 | 113.84541 | 505 ft | 8 kts | 83° |
| 2026-04-24 06:04 | 34.51903 | 113.84637 | 505 ft | 22 kts | 86° |
| 2026-04-24 06:04 | 34.51866 | 113.84840 | 505 ft | 20 kts | 113° |
| 2026-04-24 06:05 | 34.51850 | 113.84927 | 505 ft | 8 kts | 73° |
| 2026-04-24 06:05 | 34.51891 | 113.84959 | 505 ft | 7 kts | 22° |
| 2026-04-24 06:05 | 34.51931 | 113.84979 | 505 ft | 5 kts | 22° |
| 2026-04-24 06:05 | 34.51965 | 113.84995 | 505 ft | 5 kts | 22° |
| 2026-04-24 06:06 | 34.52010 | 113.85017 | 505 ft | 8 kts | 22° |
| 2026-04-24 06:06 | 34.52069 | 113.85046 | 505 ft | 10 kts | 22° |
| 2026-04-24 06:06 | 34.52126 | 113.85075 | 505 ft | 4 kts | 17° |
| 2026-04-24 06:06 | 34.52161 | 113.85066 | 505 ft | 6 kts | 319° |
| 2026-04-24 06:07 | 34.52179 | 113.85028 | 505 ft | 3 kts | 293° |
| 2026-04-24 06:07 | 34.52187 | 113.85005 | 505 ft | 0 kts | 292° |